AirNav   Air Wisconsin pilot careers
 
 1328 users online  

KCYW Clay Center Municipal Airport
Clay Center, Kansas, USA


FAA INFORMATION EFFECTIVE 09 NOVEMBER 2017

Location

FAA Identifier: CYW
Lat/Long: 39-23-13.7000N / 097-09-26.0000W
39-23.228333N / 097-09.433333W
39.3871389 / -97.1572222
(estimated)
Elevation: 1208.9 ft. / 368.5 m (surveyed)
Variation: 04E (2010)
From city: 2 miles W of CLAY CENTER, KS
Time zone: UTC -6 (UTC -5 during Daylight Saving Time)
Zip code: 67432

Airport Operations

Airport use: Open to the public
Activation date: 04/1942
Control tower: no
ARTCC: KANSAS CITY CENTER
FSS: WICHITA FLIGHT SERVICE STATION
NOTAMs facility: ICT (NOTAM-D service available)
Attendance: 0800-1700
FOR SVC AFT DUSK CALL CELL 785-757-4551.
Pattern altitude: 2008.9 ft. MSL
Wind indicator: lighted
Segmented circle: yes
Lights: RY 17/35 MIRL PRESET LOW INTST DUSK-2200; TO INCR INTST ACTVT - CTAF. AFT 2200 ACTVT - CTAF. ACTIVE REILS AND PAPIS - CTAF. RWY 17/35 ACTVT REILS AND PAPIS -CTAF.
Beacon: white-green (lighted land airport)
Operates sunset to sunrise.

Airport Communications

CTAF/UNICOM: 122.8
MARSHALL AAF GCA APPROACH: 121.25
MARSHALL AAF GCA DEPARTURE: 121.25
  • APCH/DEP SVC PRVDD BY KANSAS CITY ARTCC ON FREQS 127.35/257.97 (MANHATTAN RCAG) WHEN MARSHALL APCH CTL CLSD.

Nearby radio navigation aids

VOR radial/distance  VOR name  Freq  Var
MHKr299/26.9MANHATTAN VOR/DME110.2004E
FRIr325/(28.6)FORT RILEY VOR109.4006E
SLNr031/35.1SALINA VORTAC117.1007E

 
NDB name  Hdg/Dist  Freq  Var  ID
CLAY CENTERat field36204ECYW -.-. -.-- .--
CAVALRY316/27.531406ECVY -.-. ...- -.--

Airport Services

Fuel available: 100LL MOGAS
Parking: hangars and tiedowns
Airframe service: MAJOR
Powerplant service: MAJOR
Bottled oxygen: NONE
Bulk oxygen: NONE

Runway Information

Runway 17/35

Dimensions: 4197 x 75 ft. / 1279 x 23 m
Surface: asphalt, in good condition
Weight bearing capacity: 
Single wheel: 12.0
Double wheel: 15.0
Runway edge lights: medium intensity
RUNWAY 17  RUNWAY 35
Latitude: 39-23.573603N39-22.882590N
Longitude: 097-09.422507W097-09.443152W
Elevation: 1208.7 ft.1206.7 ft.
Traffic pattern: leftleft
Runway heading: 177 magnetic, 181 true357 magnetic, 001 true
Displaced threshold: 202 ft.227 ft.
Markings: numbers only, in good conditionnumbers only, in good condition
Visual slope indicator: 2-light PAPI on left (2.75 degrees glide path)2-light PAPI on left (2.75 degrees glide path)
Runway end identifier lights: yesyes
Touchdown point: yes, no lightsyes, no lights
Obstructions: 7 ft. other, 335 ft. from runway, 19:1 slope to clear
RWY 17 22:1 TO DSPLCD THR.
15 ft. road, 465 ft. from runway, 17:1 slope to clear

Airport Ownership and Management from official FAA records

Ownership: Publicly-owned
Owner: CITY OF CLAY CENTER
427 COURT ST.
CLAY CENTER, KS 67432
Phone 785-632-5454
Manager: SCOTT HEINEN
1226 104TH ROAD
SENECA, KS 66538
Phone (800) 760-4964

Airport Operational Statistics

Aircraft based on the field: 14
Single engine airplanes: 14
    
Aircraft operations: avg 85/day *
39% local general aviation
32% transient general aviation
29% military
* for 12-month period ending 28 September 2016

Instrument Procedures

NOTE: All procedures below are presented as PDF files. If you need a reader for these files, you should download the free Adobe Reader.

NOT FOR NAVIGATION. Please procure official charts for flight.
FAA instrument procedures published for use between 9 November 2017 at 0901Z and 7 December 2017 at 0900Z.

 
IAPs - Instrument Approach Procedures
RNAV (GPS) RWY 17   download (162KB)
RNAV (GPS) RWY 35   download (179KB)
NDB RWY 35   download (156KB)
NOTE: Special Take-Off Minimums/Departure Procedures apply   download (147KB)

Other nearby airports with instrument procedures:

K38 - Washington County Veteran's Memorial Airport (21 nm N)
KCNK - Blosser Municipal Airport (25 nm NW)
3JC - Freeman Field Airport (25 nm SE)
KMHK - Manhattan Regional Airport (27 nm SE)
KFRI - Marshall Army Airfield (27 nm SE)
 
Loc | Ops | Rwys | IFR | FBO | Links
Com | Nav | Svcs | Stats | Notes

Kansas City Aviation Department
 
Area around KCYW (Clay Center Municipal Airport)
 
Road maps at: MapQuest Bing Google
 
Aerial photo
WARNING: Photo may not be current or correct
Aerial photo of KCYW (Clay Center Municipal Airport)
Do you have a better or more recent aerial photo of Clay Center Municipal Airport that you would like to share? If so, please send us your photo.

 
Sectional chart

 
Airport distance calculator
Flying to Clay Center Municipal Airport? Find the distance to fly.

From to KCYW

Sunrise and sunset
Times for 22-Nov-2017
 Local
(UTC-6)
 Zulu
(UTC)
Morning civil twilight06:5212:52
Sunrise07:2113:21
Sunset17:0823:08
Evening civil twilight17:3823:38

Current date and time
Zulu (UTC)  22-Nov-2017 17:48:10
Local (UTC-6)  22-Nov-2017 11:48:10
 
METAR
KCNK 
25nm NW 
221655Z AUTO 18012KT CLR 00/M09 A3035 RMK AO2 SLP293 T00001094
KMHK 
27nm SE 
221652Z 21007KT 10SM CLR 01/M09 A3042 RMK AO2 SLP314 T00061094
KFRI 
28nm SE 
221658Z AUTO 24007KT 10SM CLR 01/M11 A3041 RMK AO2 SLP309 T00071107
KMYZ 
37nm NE 
221735Z AUTO 22011KT 10SM CLR 01/M09 A3035 RMK AO2
KSLN 
43nm SW 
221653Z 21009KT 10SM CLR 02/M09 A3040 RMK AO2 SLP308 T00221089
TAF
KMHK 
27nm SE 
221120Z 2212/2312 VRB03KT P6SM FEW250 FM221700 21006KT P6SM FEW250
KFRI 
28nm SE 
221600Z 2216/2322 21010KT 9999 FEW230 510203 QNH2994INS TX13/2316Z TNM02/2216Z LAST NO AMDS AFT 2222 NEXT 2700
NOTAMs
Click for the latest NOTAMs
NOTAMs are issued by the DoD/FAA and will open in a separate window not controlled by AirNav.

 

 
 

Would you like to see your business listed on this page?

 If your business provides an interesting product or service to pilots, flight crews, aircraft, or users of the Clay Center Municipal Airport, you should consider listing it here.  To start the listing process, click on the button below
 
Add a business
 

Other Pages about Clay Center Municipal Airport

Update a link
 
Copyright © AirNav, LLC. All rights reserved. Privacy Policy  Contact